sensor_id;sensor_type;location;lat;lon;timestamp;P1;durP1;ratioP1;P2;durP2;ratioP2
1691;SDS011;843;52.054;8.552;2023-04-30T00:00:26;9.60;;;7.27;;
1691;SDS011;843;52.054;8.552;2023-04-30T00:02:53;8.90;;;7.60;;
1691;SDS011;843;52.054;8.552;2023-04-30T00:05:19;13.70;;;7.40;;
1691;SDS011;843;52.054;8.552;2023-04-30T00:07:46;10.00;;;7.10;;
1691;SDS011;843;52.054;8.552;2023-04-30T00:10:12;10.13;;;7.10;;
1691;SDS011;843;52.054;8.552;2023-04-30T00:12:40;10.53;;;7.00;;
1691;SDS011;843;52.054;8.552;2023-04-30T00:15:06;9.13;;;7.10;;
1691;SDS011;843;52.054;8.552;2023-04-30T00:17:33;9.90;;;8.13;;
1691;SDS011;843;52.054;8.552;2023-04-30T00:19:59;10.07;;;7.73;;
1691;SDS011;843;52.054;8.552;2023-04-30T00:22:26;12.30;;;10.00;;
1691;SDS011;843;52.054;8.552;2023-04-30T00:24:52;13.50;;;7.57;;
1691;SDS011;843;52.054;8.552;2023-04-30T00:27:19;9.27;;;7.47;;
1691;SDS011;843;52.054;8.552;2023-04-30T00:29:47;10.73;;;7.67;;
1691;SDS011;843;52.054;8.552;2023-04-30T00:32:13;9.23;;;7.80;;
1691;SDS011;843;52.054;8.552;2023-04-30T00:34:39;15.23;;;8.00;;
1691;SDS011;843;52.054;8.552;2023-04-30T00:37:06;10.83;;;8.70;;
1691;SDS011;843;52.054;8.552;2023-04-30T00:39:32;14.20;;;7.40;;
1691;SDS011;843;52.054;8.552;2023-04-30T00:41:59;14.87;;;8.70;;
1691;SDS011;843;52.054;8.552;2023-04-30T00:44:26;15.30;;;7.47;;
1691;SDS011;843;52.054;8.552;2023-04-30T00:46:54;15.30;;;7.13;;
1691;SDS011;843;52.054;8.552;2023-04-30T00:49:20;14.73;;;8.07;;
1691;SDS011;843;52.054;8.552;2023-04-30T00:51:47;13.70;;;8.30;;
1691;SDS011;843;52.054;8.552;2023-04-30T00:54:13;11.83;;;6.30;;
1691;SDS011;843;52.054;8.552;2023-04-30T00:56:40;10.70;;;7.13;;
1691;SDS011;843;52.054;8.552;2023-04-30T00:59:06;15.07;;;7.47;;
1691;SDS011;843;52.054;8.552;2023-04-30T01:01:33;10.27;;;7.40;;
1691;SDS011;843;52.054;8.552;2023-04-30T01:04:01;8.90;;;6.30;;
1691;SDS011;843;52.054;8.552;2023-04-30T01:06:27;13.60;;;7.20;;
1691;SDS011;843;52.054;8.552;2023-04-30T01:08:54;8.13;;;5.53;;
1691;SDS011;843;52.054;8.552;2023-04-30T01:11:24;9.87;;;6.63;;
1691;SDS011;843;52.054;8.552;2023-04-30T01:13:52;10.00;;;6.70;;
1691;SDS011;843;52.054;8.552;2023-04-30T01:16:22;8.30;;;6.33;;
1691;SDS011;843;52.054;8.552;2023-04-30T01:18:51;9.30;;;5.83;;
1691;SDS011;843;52.054;8.552;2023-04-30T01:21:21;8.57;;;6.40;;
1691;SDS011;843;52.054;8.552;2023-04-30T01:23:59;9.53;;;6.37;;
1691;SDS011;843;52.054;8.552;2023-04-30T01:26:36;6.60;;;5.73;;
1691;SDS011;843;52.054;8.552;2023-04-30T01:29:09;16.30;;;7.67;;
1691;SDS011;843;52.054;8.552;2023-04-30T01:31:35;12.80;;;6.67;;
1691;SDS011;843;52.054;8.552;2023-04-30T01:34:02;9.40;;;6.70;;
1691;SDS011;843;52.054;8.552;2023-04-30T01:36:38;10.20;;;7.70;;
1691;SDS011;843;52.054;8.552;2023-04-30T01:41:49;11.50;;;6.97;;
1691;SDS011;843;52.054;8.552;2023-04-30T01:44:36;11.00;;;7.87;;
1691;SDS011;843;52.054;8.552;2023-04-30T01:47:06;10.27;;;7.07;;
1691;SDS011;843;52.054;8.552;2023-04-30T01:49:37;7.13;;;6.43;;
1691;SDS011;843;52.054;8.552;2023-04-30T01:52:08;9.27;;;7.10;;
1691;SDS011;843;52.054;8.552;2023-04-30T01:54:37;14.70;;;7.27;;
1691;SDS011;843;52.054;8.552;2023-04-30T01:57:07;14.40;;;6.90;;
1691;SDS011;843;52.054;8.552;2023-04-30T01:59:38;8.03;;;6.90;;
1691;SDS011;843;52.054;8.552;2023-04-30T02:02:05;12.77;;;8.00;;
1691;SDS011;843;52.054;8.552;2023-04-30T02:04:31;13.07;;;7.37;;
1691;SDS011;843;52.054;8.552;2023-04-30T02:06:58;10.63;;;6.70;;
1691;SDS011;843;52.054;8.552;2023-04-30T02:09:24;11.53;;;8.20;;
1691;SDS011;843;52.054;8.552;2023-04-30T02:11:50;8.30;;;6.80;;
1691;SDS011;843;52.054;8.552;2023-04-30T02:14:17;13.27;;;6.83;;
1691;SDS011;843;52.054;8.552;2023-04-30T02:16:44;9.90;;;6.87;;
1691;SDS011;843;52.054;8.552;2023-04-30T02:19:11;9.20;;;6.70;;
1691;SDS011;843;52.054;8.552;2023-04-30T02:21:37;9.90;;;7.20;;
1691;SDS011;843;52.054;8.552;2023-04-30T02:24:04;10.47;;;7.33;;
1691;SDS011;843;52.054;8.552;2023-04-30T02:26:30;10.47;;;7.00;;
1691;SDS011;843;52.054;8.552;2023-04-30T02:28:57;12.00;;;6.27;;
1691;SDS011;843;52.054;8.552;2023-04-30T02:31:23;7.47;;;6.57;;
1691;SDS011;843;52.054;8.552;2023-04-30T02:33:51;8.50;;;6.47;;
1691;SDS011;843;52.054;8.552;2023-04-30T02:36:17;8.63;;;6.43;;
1691;SDS011;843;52.054;8.552;2023-04-30T02:38:44;12.10;;;6.67;;
1691;SDS011;843;52.054;8.552;2023-04-30T02:41:10;12.67;;;7.10;;
1691;SDS011;843;52.054;8.552;2023-04-30T02:43:37;10.73;;;6.43;;
1691;SDS011;843;52.054;8.552;2023-04-30T02:46:03;11.07;;;6.80;;
1691;SDS011;843;52.054;8.552;2023-04-30T02:48:30;9.07;;;6.63;;
1691;SDS011;843;52.054;8.552;2023-04-30T02:50:58;12.47;;;5.97;;
1691;SDS011;843;52.054;8.552;2023-04-30T02:53:24;8.40;;;7.30;;
1691;SDS011;843;52.054;8.552;2023-04-30T02:55:51;11.90;;;7.20;;
1691;SDS011;843;52.054;8.552;2023-04-30T02:58:17;9.63;;;6.97;;
1691;SDS011;843;52.054;8.552;2023-04-30T03:00:43;11.13;;;7.27;;
1691;SDS011;843;52.054;8.552;2023-04-30T03:03:10;8.90;;;6.83;;
1691;SDS011;843;52.054;8.552;2023-04-30T03:05:36;11.43;;;7.90;;
1691;SDS011;843;52.054;8.552;2023-04-30T03:08:04;10.70;;;6.87;;
1691;SDS011;843;52.054;8.552;2023-04-30T03:10:30;11.87;;;6.50;;
1691;SDS011;843;52.054;8.552;2023-04-30T03:12:57;9.00;;;6.03;;
1691;SDS011;843;52.054;8.552;2023-04-30T03:15:23;9.93;;;6.40;;
1691;SDS011;843;52.054;8.552;2023-04-30T03:17:50;13.47;;;7.00;;
1691;SDS011;843;52.054;8.552;2023-04-30T03:20:16;14.17;;;7.10;;
1691;SDS011;843;52.054;8.552;2023-04-30T03:22:42;8.80;;;6.83;;
1691;SDS011;843;52.054;8.552;2023-04-30T03:25:11;8.50;;;6.67;;
1691;SDS011;843;52.054;8.552;2023-04-30T03:27:37;9.13;;;6.77;;
1691;SDS011;843;52.054;8.552;2023-04-30T03:30:04;9.80;;;6.40;;
1691;SDS011;843;52.054;8.552;2023-04-30T03:32:31;11.03;;;6.00;;
1691;SDS011;843;52.054;8.552;2023-04-30T03:34:58;9.40;;;6.13;;
1691;SDS011;843;52.054;8.552;2023-04-30T03:37:25;8.27;;;5.57;;
1691;SDS011;843;52.054;8.552;2023-04-30T03:39:51;7.97;;;6.30;;
1691;SDS011;843;52.054;8.552;2023-04-30T03:42:19;8.17;;;6.00;;
1691;SDS011;843;52.054;8.552;2023-04-30T03:44:46;14.50;;;6.13;;
1691;SDS011;843;52.054;8.552;2023-04-30T03:47:12;14.90;;;6.83;;
1691;SDS011;843;52.054;8.552;2023-04-30T03:49:39;12.67;;;6.30;;
1691;SDS011;843;52.054;8.552;2023-04-30T03:52:05;10.00;;;6.20;;
1691;SDS011;843;52.054;8.552;2023-04-30T03:54:32;10.73;;;6.03;;
1691;SDS011;843;52.054;8.552;2023-04-30T03:56:58;15.53;;;6.13;;
1691;SDS011;843;52.054;8.552;2023-04-30T03:59:29;10.40;;;6.60;;
1691;SDS011;843;52.054;8.552;2023-04-30T04:01:56;8.97;;;5.73;;
1691;SDS011;843;52.054;8.552;2023-04-30T04:04:22;11.20;;;6.60;;
1691;SDS011;843;52.054;8.552;2023-04-30T04:06:49;10.03;;;5.93;;
1691;SDS011;843;52.054;8.552;2023-04-30T04:09:15;9.57;;;6.20;;
1691;SDS011;843;52.054;8.552;2023-04-30T04:11:42;8.27;;;6.17;;
1691;SDS011;843;52.054;8.552;2023-04-30T04:14:08;11.10;;;6.90;;
1691;SDS011;843;52.054;8.552;2023-04-30T04:16:36;8.33;;;6.50;;
1691;SDS011;843;52.054;8.552;2023-04-30T04:19:02;13.00;;;6.53;;
1691;SDS011;843;52.054;8.552;2023-04-30T04:21:29;12.33;;;6.67;;
1691;SDS011;843;52.054;8.552;2023-04-30T04:23:55;9.60;;;6.37;;
1691;SDS011;843;52.054;8.552;2023-04-30T04:26:22;6.80;;;6.10;;
1691;SDS011;843;52.054;8.552;2023-04-30T04:28:49;9.23;;;6.90;;
1691;SDS011;843;52.054;8.552;2023-04-30T04:31:16;8.10;;;6.40;;
1691;SDS011;843;52.054;8.552;2023-04-30T04:36:11;10.87;;;7.90;;
1691;SDS011;843;52.054;8.552;2023-04-30T04:38:38;9.57;;;8.50;;
1691;SDS011;843;52.054;8.552;2023-04-30T04:41:05;7.90;;;6.33;;
1691;SDS011;843;52.054;8.552;2023-04-30T04:43:31;9.23;;;7.17;;
1691;SDS011;843;52.054;8.552;2023-04-30T04:45:57;9.50;;;6.77;;
1691;SDS011;843;52.054;8.552;2023-04-30T04:48:24;12.43;;;5.70;;
1691;SDS011;843;52.054;8.552;2023-04-30T04:50:50;12.03;;;6.87;;
1691;SDS011;843;52.054;8.552;2023-04-30T04:53:18;11.03;;;7.00;;
1691;SDS011;843;52.054;8.552;2023-04-30T04:55:44;9.00;;;6.70;;
1691;SDS011;843;52.054;8.552;2023-04-30T04:58:11;11.00;;;6.77;;
1691;SDS011;843;52.054;8.552;2023-04-30T05:00:37;13.27;;;7.47;;
1691;SDS011;843;52.054;8.552;2023-04-30T05:03:04;10.10;;;7.10;;
1691;SDS011;843;52.054;8.552;2023-04-30T05:05:30;17.80;;;8.50;;
1691;SDS011;843;52.054;8.552;2023-04-30T05:07:56;12.07;;;6.73;;
1691;SDS011;843;52.054;8.552;2023-04-30T05:10:24;13.70;;;5.80;;
1691;SDS011;843;52.054;8.552;2023-04-30T05:12:53;7.47;;;5.80;;
1691;SDS011;843;52.054;8.552;2023-04-30T05:15:20;7.83;;;5.97;;
1691;SDS011;843;52.054;8.552;2023-04-30T05:17:46;7.93;;;5.50;;
1691;SDS011;843;52.054;8.552;2023-04-30T05:20:12;7.57;;;4.77;;
1691;SDS011;843;52.054;8.552;2023-04-30T05:22:39;8.80;;;4.73;;
1691;SDS011;843;52.054;8.552;2023-04-30T05:25:06;7.17;;;5.10;;
1691;SDS011;843;52.054;8.552;2023-04-30T05:27:34;6.13;;;4.93;;
1691;SDS011;843;52.054;8.552;2023-04-30T05:30:00;5.17;;;4.00;;
1691;SDS011;843;52.054;8.552;2023-04-30T05:32:27;8.63;;;4.93;;
1691;SDS011;843;52.054;8.552;2023-04-30T05:34:53;7.10;;;4.40;;
1691;SDS011;843;52.054;8.552;2023-04-30T05:37:20;14.70;;;5.90;;
1691;SDS011;843;52.054;8.552;2023-04-30T05:39:46;9.67;;;5.50;;
1691;SDS011;843;52.054;8.552;2023-04-30T05:42:13;7.87;;;4.90;;
1691;SDS011;843;52.054;8.552;2023-04-30T05:44:41;14.00;;;4.67;;
1691;SDS011;843;52.054;8.552;2023-04-30T05:47:07;10.60;;;5.57;;
1691;SDS011;843;52.054;8.552;2023-04-30T05:49:34;8.47;;;5.03;;
1691;SDS011;843;52.054;8.552;2023-04-30T05:52:00;7.27;;;4.27;;
1691;SDS011;843;52.054;8.552;2023-04-30T05:54:27;13.13;;;4.57;;
1691;SDS011;843;52.054;8.552;2023-04-30T05:56:54;7.70;;;4.93;;
1691;SDS011;843;52.054;8.552;2023-04-30T05:59:20;7.70;;;4.00;;
1691;SDS011;843;52.054;8.552;2023-04-30T06:01:48;8.43;;;3.90;;
1691;SDS011;843;52.054;8.552;2023-04-30T06:04:14;11.00;;;4.50;;
1691;SDS011;843;52.054;8.552;2023-04-30T06:06:41;9.30;;;4.50;;
1691;SDS011;843;52.054;8.552;2023-04-30T06:09:08;9.10;;;4.50;;
1691;SDS011;843;52.054;8.552;2023-04-30T06:11:35;12.50;;;4.63;;
1691;SDS011;843;52.054;8.552;2023-04-30T06:14:02;12.63;;;4.77;;
1691;SDS011;843;52.054;8.552;2023-04-30T06:16:29;9.13;;;4.33;;
1691;SDS011;843;52.054;8.552;2023-04-30T06:18:57;8.53;;;4.53;;
1691;SDS011;843;52.054;8.552;2023-04-30T06:21:23;8.43;;;4.73;;
1691;SDS011;843;52.054;8.552;2023-04-30T06:23:50;12.47;;;4.67;;
1691;SDS011;843;52.054;8.552;2023-04-30T06:26:16;7.37;;;3.60;;
1691;SDS011;843;52.054;8.552;2023-04-30T06:28:43;8.20;;;3.83;;
1691;SDS011;843;52.054;8.552;2023-04-30T06:31:10;9.97;;;4.03;;
1691;SDS011;843;52.054;8.552;2023-04-30T06:33:36;12.47;;;4.53;;
1691;SDS011;843;52.054;8.552;2023-04-30T06:36:05;9.87;;;4.97;;
1691;SDS011;843;52.054;8.552;2023-04-30T06:38:31;9.47;;;4.47;;
1691;SDS011;843;52.054;8.552;2023-04-30T06:40:57;8.17;;;3.50;;
1691;SDS011;843;52.054;8.552;2023-04-30T06:43:24;13.23;;;3.93;;
1691;SDS011;843;52.054;8.552;2023-04-30T06:45:50;6.63;;;3.67;;
1691;SDS011;843;52.054;8.552;2023-04-30T06:48:17;12.87;;;4.10;;
1691;SDS011;843;52.054;8.552;2023-04-30T06:50:43;7.37;;;3.63;;
1691;SDS011;843;52.054;8.552;2023-04-30T06:53:11;9.87;;;4.03;;
1691;SDS011;843;52.054;8.552;2023-04-30T06:55:38;11.57;;;3.33;;
1691;SDS011;843;52.054;8.552;2023-04-30T06:58:04;10.90;;;3.67;;
1691;SDS011;843;52.054;8.552;2023-04-30T07:00:31;8.00;;;3.20;;
1691;SDS011;843;52.054;8.552;2023-04-30T07:02:57;10.73;;;3.40;;
1691;SDS011;843;52.054;8.552;2023-04-30T07:05:26;9.73;;;3.10;;
1691;SDS011;843;52.054;8.552;2023-04-30T07:07:53;10.80;;;3.60;;
1691;SDS011;843;52.054;8.552;2023-04-30T07:10:21;7.53;;;2.90;;
1691;SDS011;843;52.054;8.552;2023-04-30T07:12:47;10.50;;;2.97;;
1691;SDS011;843;52.054;8.552;2023-04-30T07:15:13;11.17;;;3.43;;
1691;SDS011;843;52.054;8.552;2023-04-30T07:17:40;6.57;;;3.00;;
1691;SDS011;843;52.054;8.552;2023-04-30T07:20:07;5.77;;;2.90;;
1691;SDS011;843;52.054;8.552;2023-04-30T07:22:34;7.10;;;2.97;;
1691;SDS011;843;52.054;8.552;2023-04-30T07:25:00;6.90;;;3.03;;
1691;SDS011;843;52.054;8.552;2023-04-30T07:27:28;5.73;;;2.53;;
1691;SDS011;843;52.054;8.552;2023-04-30T07:29:55;8.80;;;3.40;;
1691;SDS011;843;52.054;8.552;2023-04-30T07:32:21;8.80;;;3.27;;
1691;SDS011;843;52.054;8.552;2023-04-30T07:34:51;9.53;;;3.90;;
1691;SDS011;843;52.054;8.552;2023-04-30T07:37:17;12.10;;;4.13;;
1691;SDS011;843;52.054;8.552;2023-04-30T07:39:44;10.20;;;3.30;;
1691;SDS011;843;52.054;8.552;2023-04-30T07:42:10;5.97;;;3.57;;
1691;SDS011;843;52.054;8.552;2023-04-30T07:44:38;13.53;;;3.30;;
1691;SDS011;843;52.054;8.552;2023-04-30T07:47:05;5.57;;;3.37;;
1691;SDS011;843;52.054;8.552;2023-04-30T07:49:31;8.10;;;3.43;;
1691;SDS011;843;52.054;8.552;2023-04-30T07:51:58;8.27;;;3.70;;
1691;SDS011;843;52.054;8.552;2023-04-30T07:54:25;5.77;;;2.67;;
1691;SDS011;843;52.054;8.552;2023-04-30T07:56:51;10.87;;;4.70;;
1691;SDS011;843;52.054;8.552;2023-04-30T07:59:18;14.50;;;3.57;;
1691;SDS011;843;52.054;8.552;2023-04-30T08:01:46;9.60;;;4.13;;
1691;SDS011;843;52.054;8.552;2023-04-30T08:04:15;10.70;;;3.47;;
1691;SDS011;843;52.054;8.552;2023-04-30T08:06:41;8.60;;;3.90;;
1691;SDS011;843;52.054;8.552;2023-04-30T08:09:07;11.67;;;4.17;;
1691;SDS011;843;52.054;8.552;2023-04-30T08:11:34;5.90;;;3.10;;
1691;SDS011;843;52.054;8.552;2023-04-30T08:14:00;11.20;;;4.00;;
1691;SDS011;843;52.054;8.552;2023-04-30T08:16:27;10.07;;;4.00;;
1691;SDS011;843;52.054;8.552;2023-04-30T08:18:55;10.50;;;3.63;;
1691;SDS011;843;52.054;8.552;2023-04-30T08:21:21;9.17;;;3.37;;
1691;SDS011;843;52.054;8.552;2023-04-30T08:23:48;6.70;;;3.47;;
1691;SDS011;843;52.054;8.552;2023-04-30T08:26:14;7.20;;;3.30;;
1691;SDS011;843;52.054;8.552;2023-04-30T08:28:41;8.60;;;3.00;;
1691;SDS011;843;52.054;8.552;2023-04-30T08:31:08;5.93;;;3.00;;
1691;SDS011;843;52.054;8.552;2023-04-30T08:33:35;8.73;;;3.10;;
1691;SDS011;843;52.054;8.552;2023-04-30T08:36:03;11.10;;;3.47;;
1691;SDS011;843;52.054;8.552;2023-04-30T08:38:29;6.47;;;2.80;;
1691;SDS011;843;52.054;8.552;2023-04-30T08:41:05;5.33;;;2.97;;
1691;SDS011;843;52.054;8.552;2023-04-30T08:43:34;8.27;;;2.70;;
1691;SDS011;843;52.054;8.552;2023-04-30T08:46:00;8.50;;;3.00;;
1691;SDS011;843;52.054;8.552;2023-04-30T08:48:27;5.77;;;3.10;;
1691;SDS011;843;52.054;8.552;2023-04-30T08:50:54;5.87;;;2.70;;
1691;SDS011;843;52.054;8.552;2023-04-30T08:53:22;5.73;;;3.30;;
1691;SDS011;843;52.054;8.552;2023-04-30T08:55:49;6.57;;;3.27;;
1691;SDS011;843;52.054;8.552;2023-04-30T08:58:15;6.43;;;2.20;;
1691;SDS011;843;52.054;8.552;2023-04-30T09:00:41;11.63;;;2.40;;
1691;SDS011;843;52.054;8.552;2023-04-30T09:03:08;10.00;;;3.70;;
1691;SDS011;843;52.054;8.552;2023-04-30T09:05:35;7.10;;;3.17;;
1691;SDS011;843;52.054;8.552;2023-04-30T09:08:02;4.90;;;2.77;;
1691;SDS011;843;52.054;8.552;2023-04-30T09:10:31;5.10;;;2.40;;
1691;SDS011;843;52.054;8.552;2023-04-30T09:12:58;9.90;;;3.17;;
1691;SDS011;843;52.054;8.552;2023-04-30T09:15:25;9.00;;;3.07;;
1691;SDS011;843;52.054;8.552;2023-04-30T09:18:04;7.20;;;2.87;;
1691;SDS011;843;52.054;8.552;2023-04-30T09:20:30;11.67;;;3.07;;
1691;SDS011;843;52.054;8.552;2023-04-30T09:23:03;5.47;;;2.90;;
1691;SDS011;843;52.054;8.552;2023-04-30T09:25:38;7.43;;;3.17;;
1691;SDS011;843;52.054;8.552;2023-04-30T09:28:08;5.17;;;2.93;;
1691;SDS011;843;52.054;8.552;2023-04-30T09:30:35;5.50;;;2.40;;
1691;SDS011;843;52.054;8.552;2023-04-30T09:33:02;9.80;;;3.67;;
1691;SDS011;843;52.054;8.552;2023-04-30T09:35:29;6.37;;;2.67;;
1691;SDS011;843;52.054;8.552;2023-04-30T09:37:57;6.53;;;2.70;;
1691;SDS011;843;52.054;8.552;2023-04-30T09:40:31;8.90;;;3.17;;
1691;SDS011;843;52.054;8.552;2023-04-30T09:42:59;8.70;;;3.23;;
1691;SDS011;843;52.054;8.552;2023-04-30T09:45:25;5.43;;;3.00;;
1691;SDS011;843;52.054;8.552;2023-04-30T09:47:52;7.23;;;3.50;;
1691;SDS011;843;52.054;8.552;2023-04-30T09:50:18;10.23;;;3.23;;
1691;SDS011;843;52.054;8.552;2023-04-30T09:52:46;6.90;;;2.87;;
1691;SDS011;843;52.054;8.552;2023-04-30T09:55:14;9.70;;;2.80;;
1691;SDS011;843;52.054;8.552;2023-04-30T09:57:40;5.93;;;2.80;;
1691;SDS011;843;52.054;8.552;2023-04-30T10:00:09;7.13;;;2.90;;
1691;SDS011;843;52.054;8.552;2023-04-30T10:02:35;8.93;;;3.03;;
1691;SDS011;843;52.054;8.552;2023-04-30T10:05:03;6.87;;;2.80;;
1691;SDS011;843;52.054;8.552;2023-04-30T10:07:30;5.77;;;2.80;;
1691;SDS011;843;52.054;8.552;2023-04-30T10:09:57;5.47;;;2.63;;
1691;SDS011;843;52.054;8.552;2023-04-30T10:12:25;7.50;;;2.80;;
1691;SDS011;843;52.054;8.552;2023-04-30T10:14:54;6.97;;;2.70;;
1691;SDS011;843;52.054;8.552;2023-04-30T10:17:22;4.33;;;3.00;;
1691;SDS011;843;52.054;8.552;2023-04-30T10:19:49;7.00;;;2.83;;
1691;SDS011;843;52.054;8.552;2023-04-30T10:22:17;4.97;;;3.10;;
1691;SDS011;843;52.054;8.552;2023-04-30T10:24:44;4.87;;;2.60;;
1691;SDS011;843;52.054;8.552;2023-04-30T10:27:11;6.00;;;2.37;;
1691;SDS011;843;52.054;8.552;2023-04-30T10:29:38;9.17;;;2.50;;
1691;SDS011;843;52.054;8.552;2023-04-30T10:32:04;7.53;;;3.17;;
1691;SDS011;843;52.054;8.552;2023-04-30T10:34:34;6.17;;;3.00;;
1691;SDS011;843;52.054;8.552;2023-04-30T10:37:03;3.87;;;2.60;;
1691;SDS011;843;52.054;8.552;2023-04-30T10:39:31;7.13;;;2.70;;
1691;SDS011;843;52.054;8.552;2023-04-30T10:42:01;6.73;;;2.13;;
1691;SDS011;843;52.054;8.552;2023-04-30T10:44:30;4.13;;;2.33;;
1691;SDS011;843;52.054;8.552;2023-04-30T10:46:57;5.70;;;2.83;;
1691;SDS011;843;52.054;8.552;2023-04-30T10:49:24;3.60;;;2.30;;
1691;SDS011;843;52.054;8.552;2023-04-30T10:51:52;7.87;;;3.70;;
1691;SDS011;843;52.054;8.552;2023-04-30T10:54:22;9.60;;;3.00;;
1691;SDS011;843;52.054;8.552;2023-04-30T10:56:50;8.50;;;3.73;;
1691;SDS011;843;52.054;8.552;2023-04-30T10:59:17;5.67;;;3.30;;
1691;SDS011;843;52.054;8.552;2023-04-30T11:04:25;5.07;;;3.10;;
1691;SDS011;843;52.054;8.552;2023-04-30T11:07:00;4.87;;;3.27;;
1691;SDS011;843;52.054;8.552;2023-04-30T11:09:34;6.17;;;2.60;;
1691;SDS011;843;52.054;8.552;2023-04-30T11:12:02;10.70;;;2.77;;
1691;SDS011;843;52.054;8.552;2023-04-30T11:14:30;8.57;;;2.93;;
1691;SDS011;843;52.054;8.552;2023-04-30T11:16:57;6.03;;;2.90;;
1691;SDS011;843;52.054;8.552;2023-04-30T11:19:24;4.90;;;2.57;;
1691;SDS011;843;52.054;8.552;2023-04-30T11:24:55;4.50;;;3.20;;
1691;SDS011;843;52.054;8.552;2023-04-30T11:27:26;5.80;;;2.93;;
1691;SDS011;843;52.054;8.552;2023-04-30T11:29:54;7.97;;;3.77;;
1691;SDS011;843;52.054;8.552;2023-04-30T11:32:21;6.53;;;2.63;;
1691;SDS011;843;52.054;8.552;2023-04-30T11:34:48;4.13;;;2.40;;
1691;SDS011;843;52.054;8.552;2023-04-30T11:37:17;2.80;;;2.10;;
1691;SDS011;843;52.054;8.552;2023-04-30T11:39:44;3.70;;;2.07;;
1691;SDS011;843;52.054;8.552;2023-04-30T11:42:16;4.83;;;2.20;;
1691;SDS011;843;52.054;8.552;2023-04-30T11:44:43;4.77;;;2.20;;
1691;SDS011;843;52.054;8.552;2023-04-30T11:47:09;6.30;;;1.90;;
1691;SDS011;843;52.054;8.552;2023-04-30T11:49:36;4.23;;;2.40;;
1691;SDS011;843;52.054;8.552;2023-04-30T11:52:02;5.30;;;2.23;;
1691;SDS011;843;52.054;8.552;2023-04-30T11:54:30;3.63;;;2.10;;
1691;SDS011;843;52.054;8.552;2023-04-30T11:56:56;4.07;;;2.20;;
1691;SDS011;843;52.054;8.552;2023-04-30T11:59:29;3.43;;;2.13;;
1691;SDS011;843;52.054;8.552;2023-04-30T12:01:56;5.33;;;2.50;;
1691;SDS011;843;52.054;8.552;2023-04-30T12:04:22;4.13;;;1.80;;
1691;SDS011;843;52.054;8.552;2023-04-30T12:06:49;3.53;;;1.93;;
1691;SDS011;843;52.054;8.552;2023-04-30T12:09:15;5.17;;;1.70;;
1691;SDS011;843;52.054;8.552;2023-04-30T12:11:42;6.27;;;2.33;;
1691;SDS011;843;52.054;8.552;2023-04-30T12:14:09;4.20;;;2.33;;
1691;SDS011;843;52.054;8.552;2023-04-30T12:16:41;5.00;;;2.03;;
1691;SDS011;843;52.054;8.552;2023-04-30T12:19:08;4.00;;;2.23;;
1691;SDS011;843;52.054;8.552;2023-04-30T12:21:34;6.40;;;2.37;;
1691;SDS011;843;52.054;8.552;2023-04-30T12:24:01;5.23;;;2.60;;
1691;SDS011;843;52.054;8.552;2023-04-30T12:26:33;3.70;;;1.93;;
1691;SDS011;843;52.054;8.552;2023-04-30T12:28:59;3.50;;;2.23;;
1691;SDS011;843;52.054;8.552;2023-04-30T12:31:29;3.23;;;2.03;;
1691;SDS011;843;52.054;8.552;2023-04-30T12:33:58;7.00;;;2.17;;
1691;SDS011;843;52.054;8.552;2023-04-30T12:36:28;5.43;;;3.33;;
1691;SDS011;843;52.054;8.552;2023-04-30T12:39:00;4.03;;;2.63;;
1691;SDS011;843;52.054;8.552;2023-04-30T12:41:28;5.33;;;2.70;;
1691;SDS011;843;52.054;8.552;2023-04-30T12:46:35;9.17;;;3.00;;
1691;SDS011;843;52.054;8.552;2023-04-30T12:49:03;4.53;;;3.03;;
1691;SDS011;843;52.054;8.552;2023-04-30T12:51:31;5.07;;;2.60;;
1691;SDS011;843;52.054;8.552;2023-04-30T12:53:58;9.77;;;3.03;;
1691;SDS011;843;52.054;8.552;2023-04-30T12:56:24;8.77;;;2.67;;
1691;SDS011;843;52.054;8.552;2023-04-30T12:58:51;4.07;;;2.33;;
1691;SDS011;843;52.054;8.552;2023-04-30T13:01:18;5.63;;;2.20;;
1691;SDS011;843;52.054;8.552;2023-04-30T13:03:45;2.87;;;2.27;;
1691;SDS011;843;52.054;8.552;2023-04-30T13:06:13;5.47;;;3.30;;
1691;SDS011;843;52.054;8.552;2023-04-30T13:08:40;4.83;;;3.00;;
1691;SDS011;843;52.054;8.552;2023-04-30T13:11:06;5.33;;;2.70;;
1691;SDS011;843;52.054;8.552;2023-04-30T13:13:33;4.20;;;3.00;;
1691;SDS011;843;52.054;8.552;2023-04-30T13:15:59;6.00;;;3.10;;
1691;SDS011;843;52.054;8.552;2023-04-30T13:18:26;5.93;;;2.80;;
1691;SDS011;843;52.054;8.552;2023-04-30T13:20:52;4.53;;;3.00;;
1691;SDS011;843;52.054;8.552;2023-04-30T13:23:20;5.80;;;2.90;;
1691;SDS011;843;52.054;8.552;2023-04-30T13:25:47;5.43;;;3.67;;
1691;SDS011;843;52.054;8.552;2023-04-30T13:28:13;5.93;;;3.73;;
1691;SDS011;843;52.054;8.552;2023-04-30T13:30:40;3.40;;;2.60;;
1691;SDS011;843;52.054;8.552;2023-04-30T13:33:06;5.77;;;3.30;;
1691;SDS011;843;52.054;8.552;2023-04-30T13:35:33;5.73;;;2.87;;
1691;SDS011;843;52.054;8.552;2023-04-30T13:38:00;9.73;;;3.50;;
1691;SDS011;843;52.054;8.552;2023-04-30T13:40:27;8.17;;;3.70;;
1691;SDS011;843;52.054;8.552;2023-04-30T13:42:54;5.63;;;3.20;;
1691;SDS011;843;52.054;8.552;2023-04-30T13:45:20;3.20;;;2.47;;
1691;SDS011;843;52.054;8.552;2023-04-30T13:47:47;8.57;;;3.77;;
1691;SDS011;843;52.054;8.552;2023-04-30T13:50:13;7.03;;;2.70;;
1691;SDS011;843;52.054;8.552;2023-04-30T13:52:40;10.17;;;3.23;;
1691;SDS011;843;52.054;8.552;2023-04-30T13:55:07;7.57;;;2.60;;
1691;SDS011;843;52.054;8.552;2023-04-30T13:57:35;6.37;;;2.87;;
1691;SDS011;843;52.054;8.552;2023-04-30T14:00:02;4.27;;;2.70;;
1691;SDS011;843;52.054;8.552;2023-04-30T14:02:30;5.10;;;3.53;;
1691;SDS011;843;52.054;8.552;2023-04-30T14:04:56;6.43;;;3.00;;
1691;SDS011;843;52.054;8.552;2023-04-30T14:07:23;4.00;;;3.00;;
1691;SDS011;843;52.054;8.552;2023-04-30T14:09:50;6.00;;;2.83;;
1691;SDS011;843;52.054;8.552;2023-04-30T14:12:16;4.40;;;2.50;;
1691;SDS011;843;52.054;8.552;2023-04-30T14:14:44;5.20;;;2.93;;
1691;SDS011;843;52.054;8.552;2023-04-30T14:17:11;4.93;;;3.27;;
1691;SDS011;843;52.054;8.552;2023-04-30T14:19:37;5.13;;;2.17;;
1691;SDS011;843;52.054;8.552;2023-04-30T14:22:04;4.93;;;2.27;;
1691;SDS011;843;52.054;8.552;2023-04-30T14:24:30;8.30;;;2.50;;
1691;SDS011;843;52.054;8.552;2023-04-30T14:26:58;6.80;;;2.90;;
1691;SDS011;843;52.054;8.552;2023-04-30T14:29:25;7.33;;;2.17;;
1691;SDS011;843;52.054;8.552;2023-04-30T14:31:53;7.10;;;2.53;;
1691;SDS011;843;52.054;8.552;2023-04-30T14:34:20;8.50;;;3.30;;
1691;SDS011;843;52.054;8.552;2023-04-30T14:36:46;7.37;;;2.67;;
1691;SDS011;843;52.054;8.552;2023-04-30T14:39:12;3.70;;;2.20;;
1691;SDS011;843;52.054;8.552;2023-04-30T14:41:39;5.00;;;2.10;;
1691;SDS011;843;52.054;8.552;2023-04-30T14:44:05;3.87;;;2.50;;
1691;SDS011;843;52.054;8.552;2023-04-30T14:46:32;6.37;;;3.37;;
1691;SDS011;843;52.054;8.552;2023-04-30T14:49:00;5.60;;;2.07;;
1691;SDS011;843;52.054;8.552;2023-04-30T14:51:26;4.53;;;2.10;;
1691;SDS011;843;52.054;8.552;2023-04-30T14:53:53;5.00;;;2.57;;
1691;SDS011;843;52.054;8.552;2023-04-30T14:56:19;7.00;;;2.23;;
1691;SDS011;843;52.054;8.552;2023-04-30T14:58:46;4.70;;;2.70;;
1691;SDS011;843;52.054;8.552;2023-04-30T15:01:13;4.47;;;2.57;;
1691;SDS011;843;52.054;8.552;2023-04-30T15:03:39;6.63;;;2.90;;
1691;SDS011;843;52.054;8.552;2023-04-30T15:06:07;5.30;;;2.93;;
1691;SDS011;843;52.054;8.552;2023-04-30T15:08:34;7.10;;;2.53;;
1691;SDS011;843;52.054;8.552;2023-04-30T15:11:01;4.50;;;2.27;;
1691;SDS011;843;52.054;8.552;2023-04-30T15:13:27;5.77;;;2.73;;
1691;SDS011;843;52.054;8.552;2023-04-30T15:15:54;6.40;;;2.67;;
1691;SDS011;843;52.054;8.552;2023-04-30T15:18:20;16.33;;;2.27;;
1691;SDS011;843;52.054;8.552;2023-04-30T15:20:49;4.20;;;1.70;;
1691;SDS011;843;52.054;8.552;2023-04-30T15:23:16;4.50;;;2.13;;
1691;SDS011;843;52.054;8.552;2023-04-30T15:25:43;5.70;;;3.00;;
1691;SDS011;843;52.054;8.552;2023-04-30T15:28:09;6.60;;;2.40;;
1691;SDS011;843;52.054;8.552;2023-04-30T15:30:36;5.53;;;2.20;;
1691;SDS011;843;52.054;8.552;2023-04-30T15:33:02;6.40;;;2.37;;
1691;SDS011;843;52.054;8.552;2023-04-30T15:35:29;6.97;;;2.60;;
1691;SDS011;843;52.054;8.552;2023-04-30T15:37:55;4.83;;;2.83;;